Time;durP1;ratioP1;P1;durP2;ratioP2;P2;SDS_P1;SDS_P2;PMS_P1;PMS_P2;Temp;Humidity;BMP_temperature;BMP_pressure;BME280_temperature;BME280_humidity;BME280_pressure;Samples;Min_cycle;Max_cycle;Signal;HPM_P1;HPM_P2
2024/04/18 00:01:29;;;;;;;2.55;1.27;;;7.70;70.20;;;;;;5449932;26;19998;-72
2024/04/18 00:03:56;;;;;;;2.53;1.58;;;7.70;70.00;;;;;;5451071;26;19999;-72
2024/04/18 00:06:23;;;;;;;4.45;0.93;;;7.60;70.00;;;;;;5450666;26;19990;-72
2024/04/18 00:08:50;;;;;;;1.45;1.17;;;7.60;70.00;;;;;;5419334;26;19995;-72
2024/04/18 00:11:16;;;;;;;2.95;1.60;;;7.50;69.80;;;;;;5450408;26;20063;-72
2024/04/18 00:13:43;;;;;;;1.38;0.70;;;7.50;69.80;;;;;;5450246;26;20027;-72
2024/04/18 00:16:10;;;;;;;2.08;0.98;;;7.40;69.70;;;;;;5450813;26;20458;-72
2024/04/18 00:18:37;;;;;;;3.40;1.23;;;7.40;69.80;;;;;;5451455;26;19991;-72
2024/04/18 00:21:04;;;;;;;1.40;0.73;;;7.30;69.60;;;;;;5448275;26;20327;-72
2024/04/18 00:23:31;;;;;;;2.75;1.58;;;7.30;69.60;;;;;;5450956;26;20320;-72
2024/04/18 00:25:58;;;;;;;1.17;0.40;;;7.30;69.40;;;;;;5451142;26;19995;-72
2024/04/18 00:28:25;;;;;;;1.45;0.77;;;7.20;69.30;;;;;;5449512;26;20427;-72
2024/04/18 00:30:52;;;;;;;0.98;0.52;;;7.10;69.20;;;;;;5438290;26;20080;-72
2024/04/18 00:33:19;;;;;;;0.75;0.45;;;7.10;69.20;;;;;;5412388;26;20003;-72
2024/04/18 00:35:46;;;;;;;1.77;0.77;;;7.10;69.20;;;;;;5414132;26;20446;-72
2024/04/18 00:38:33;;;;;;;2.28;0.70;;;7.00;69.10;;;;;;5412666;26;20000;-72
2024/04/18 00:41:00;;;;;;;;;;;6.90;69.40;;;;;;5428453;26;20444;-71
2024/04/18 00:43:27;;;;;;;2.30;1.40;;;6.90;69.50;;;;;;5449878;26;20349;-72
2024/04/18 00:45:56;;;;;;;0.63;0.55;;;6.80;69.50;;;;;;5448780;26;20331;-72
2024/04/18 00:48:24;;;;;;;0.75;0.40;;;6.80;70.30;;;;;;5449201;26;20439;-72
2024/04/18 00:50:55;;;;;;;0.70;0.70;;;6.80;70.00;;;;;;5449843;26;20014;-72
2024/04/18 00:53:25;;;;;;;1.13;1.02;;;6.70;69.60;;;;;;5448356;26;20381;-72
2024/04/18 00:56:10;;;;;;;1.00;0.73;;;6.60;69.50;;;;;;5449080;26;20002;-72
2024/04/18 00:58:37;;;;;;;1.48;0.98;;;6.70;69.40;;;;;;5447229;26;19998;-72
2024/04/18 01:01:05;;;;;;;1.05;0.35;;;6.70;68.90;;;;;;5449242;26;20075;-72
2024/04/18 01:03:32;;;;;;;1.40;0.75;;;6.70;68.70;;;;;;5418045;26;20014;-72
2024/04/18 01:05:59;;;;;;;0.60;0.60;;;6.70;68.50;;;;;;5450146;26;20071;-72
2024/04/18 01:08:26;;;;;;;1.40;0.95;;;6.70;68.20;;;;;;5449271;26;19991;-72
2024/04/18 01:10:54;;;;;;;0.65;0.57;;;6.70;68.20;;;;;;5449149;26;20010;-72
2024/04/18 01:13:21;;;;;;;1.75;0.68;;;6.60;68.40;;;;;;5449476;26;20064;-72
2024/04/18 01:15:48;;;;;;;1.50;1.02;;;6.60;68.30;;;;;;5417824;26;20420;-72
2024/04/18 01:18:16;;;;;;;1.25;0.95;;;6.50;68.10;;;;;;5447073;26;20383;-72
2024/04/18 01:20:43;;;;;;;0.20;0.20;;;6.40;68.10;;;;;;5449127;26;20430;-72
2024/04/18 01:23:10;;;;;;;0.93;0.45;;;6.40;67.90;;;;;;5418472;26;20044;-71
2024/04/18 01:25:37;;;;;;;1.85;0.82;;;6.30;67.80;;;;;;5448508;26;20337;-71
2024/04/18 01:28:04;;;;;;;1.17;0.68;;;6.20;67.30;;;;;;5447410;26;20014;-72
2024/04/18 01:30:31;;;;;;;0.82;0.47;;;6.20;67.50;;;;;;5410139;26;20040;-72
2024/04/18 01:32:58;;;;;;;0.73;0.47;;;6.10;67.60;;;;;;5413643;26;20798;-72
2024/04/18 01:35:25;;;;;;;0.38;0.38;;;6.00;67.50;;;;;;5412222;26;20073;-72
2024/04/18 01:37:52;;;;;;;0.70;0.52;;;6.00;67.90;;;;;;5382881;26;19996;-71
2024/04/18 01:40:20;;;;;;;2.08;0.73;;;5.90;67.90;;;;;;5413486;26;19995;-72
2024/04/18 01:42:46;;;;;;;1.05;1.00;;;5.90;68.30;;;;;;5411959;26;20008;-72
2024/04/18 01:45:13;;;;;;;1.33;0.40;;;5.90;68.10;;;;;;5410358;26;20045;-72
2024/04/18 01:47:40;;;;;;;1.58;0.85;;;5.90;68.10;;;;;;5411457;26;20045;-72
2024/04/18 01:50:08;;;;;;;1.98;0.73;;;5.80;68.10;;;;;;5409817;26;20336;-72
2024/04/18 01:52:36;;;;;;;2.05;0.93;;;5.70;68.60;;;;;;5411693;26;20065;-72
2024/04/18 01:55:05;;;;;;;0.90;0.50;;;5.70;68.70;;;;;;5381889;26;20015;-71
2024/04/18 01:57:32;;;;;;;0.43;0.30;;;5.70;68.90;;;;;;5381816;26;20002;-72
2024/04/18 01:59:59;;;;;;;1.25;0.47;;;5.70;68.90;;;;;;5411219;26;19991;-72
2024/04/18 02:02:26;;;;;;;0.20;0.20;;;5.70;69.10;;;;;;5409546;26;20072;-71
2024/04/18 02:04:53;;;;;;;1.52;0.80;;;5.80;68.90;;;;;;5410738;26;20003;-72
2024/04/18 02:07:20;;;;;;;1.27;0.90;;;5.80;68.90;;;;;;5410087;26;19992;-72
2024/04/18 02:09:47;;;;;;;1.45;0.85;;;5.70;69.00;;;;;;5411314;26;20072;-72
2024/04/18 02:12:14;;;;;;;0.95;0.90;;;5.70;69.20;;;;;;5415593;26;20004;-71
2024/04/18 02:14:41;;;;;;;1.92;1.02;;;5.80;69.10;;;;;;5416238;26;20000;-72
2024/04/18 02:17:08;;;;;;;1.65;0.55;;;5.80;69.00;;;;;;5414688;26;20332;-72
2024/04/18 02:19:35;;;;;;;4.10;1.08;;;5.70;69.10;;;;;;5416909;26;20006;-71
2024/04/18 02:22:01;;;;;;;0.98;0.47;;;5.80;69.30;;;;;;5413305;26;19995;-72
2024/04/18 02:24:28;;;;;;;0.60;0.45;;;5.80;68.90;;;;;;5416030;26;20044;-72
2024/04/18 02:26:55;;;;;;;1.10;0.60;;;5.70;68.80;;;;;;5414842;26;20003;-72
2024/04/18 02:29:22;;;;;;;2.47;1.42;;;5.70;68.50;;;;;;5415521;26;20068;-72
2024/04/18 02:31:49;;;;;;;1.65;1.05;;;5.70;68.70;;;;;;5415238;26;20352;-72
2024/04/18 02:34:16;;;;;;;1.15;0.60;;;5.60;68.30;;;;;;5416508;26;20000;-72
2024/04/18 02:36:43;;;;;;;1.98;1.05;;;5.70;68.40;;;;;;5416175;26;20453;-72
2024/04/18 02:39:10;;;;;;;0.52;0.45;;;5.70;68.40;;;;;;5414096;26;20072;-71
2024/04/18 02:41:37;;;;;;;1.13;0.70;;;5.70;68.40;;;;;;5414936;26;20003;-72
2024/04/18 02:44:04;;;;;;;1.10;0.40;;;5.70;68.20;;;;;;5384303;26;20081;-72
2024/04/18 02:46:31;;;;;;;0.90;0.70;;;5.70;67.80;;;;;;5414357;26;20003;-72
2024/04/18 02:48:58;;;;;;;0.80;0.70;;;5.70;68.00;;;;;;5414008;26;20000;-72
2024/04/18 02:51:25;;;;;;;0.98;0.52;;;5.80;68.20;;;;;;5415787;26;20517;-72
2024/04/18 02:53:52;;;;;;;1.90;0.95;;;5.80;68.40;;;;;;5413754;26;20007;-72
2024/04/18 02:56:19;;;;;;;1.92;0.77;;;5.80;68.50;;;;;;5414286;26;20440;-72
2024/04/18 02:58:47;;;;;;;3.97;1.23;;;5.80;68.40;;;;;;5412901;26;20014;-71
2024/04/18 03:01:14;;;;;;;1.45;1.35;;;5.80;68.40;;;;;;5413597;26;20003;-72
2024/04/18 03:03:41;;;;;;;1.77;1.13;;;5.80;68.40;;;;;;5413312;26;20322;-72
2024/04/18 03:06:09;;;;;;;2.20;1.67;;;5.90;68.50;;;;;;5415276;26;19996;-72
2024/04/18 03:08:36;;;;;;;1.73;1.05;;;5.90;68.40;;;;;;5415567;26;20049;-72
2024/04/18 03:11:03;;;;;;;0.70;0.70;;;6.00;68.30;;;;;;5415514;26;20032;-72
2024/04/18 03:13:30;;;;;;;2.25;0.88;;;6.00;68.20;;;;;;5415080;26;20061;-71
2024/04/18 03:15:56;;;;;;;0.47;0.40;;;6.00;68.10;;;;;;5383808;26;20007;-72
2024/04/18 03:18:23;;;;;;;0.55;0.40;;;6.00;68.10;;;;;;5414951;26;20007;-72
2024/04/18 03:21:09;;;;;;;1.38;0.73;;;6.00;68.20;;;;;;5414158;26;19999;-72
2024/04/18 03:23:35;;;;;;;1.65;0.57;;;6.00;68.40;;;;;;5413433;26;20017;-72
2024/04/18 03:26:02;;;;;;;1.30;0.68;;;6.00;68.30;;;;;;5413412;26;20000;-72
2024/04/18 03:28:29;;;;;;;0.65;0.60;;;6.00;68.60;;;;;;5414487;26;19996;-72
2024/04/18 03:30:56;;;;;;;1.77;0.85;;;6.00;69.00;;;;;;5413464;26;20000;-72
2024/04/18 03:33:23;;;;;;;1.77;0.85;;;6.00;68.90;;;;;;5415173;26;19991;-72
2024/04/18 03:35:50;;;;;;;0.57;0.47;;;6.10;68.80;;;;;;5415565;26;19996;-72
2024/04/18 03:38:17;;;;;;;0.98;0.50;;;6.10;68.60;;;;;;5415107;26;20009;-72
2024/04/18 03:40:55;;;;;;;0.30;0.30;;;6.10;68.90;;;;;;5414223;26;20031;-72
2024/04/18 03:43:23;;;;;;;1.75;0.55;;;6.20;69.40;;;;;;5413533;26;20011;-72
2024/04/18 03:46:08;;;;;;;1.58;1.33;;;6.20;68.70;;;;;;5415340;26;20015;-72
2024/04/18 03:48:35;;;;;;;0.70;0.40;;;6.20;69.10;;;;;;5414363;26;20403;-72
2024/04/18 03:51:02;;;;;;;1.85;1.05;;;6.20;69.30;;;;;;5412856;26;20488;-72
2024/04/18 03:53:29;;;;;;;1.20;0.50;;;6.20;69.30;;;;;;5414578;26;20011;-72
2024/04/18 03:55:55;;;;;;;0.75;0.40;;;6.20;69.20;;;;;;5383512;26;20000;-72
2024/04/18 03:58:22;;;;;;;2.08;0.98;;;6.30;69.60;;;;;;5383612;26;20011;-72
2024/04/18 04:00:49;;;;;;;2.63;2.17;;;6.20;70.40;;;;;;5414788;26;19995;-72
2024/04/18 04:03:16;;;;;;;0.55;0.40;;;6.10;70.70;;;;;;5413165;26;20004;-72
2024/04/18 04:05:43;;;;;;;0.63;0.40;;;6.20;71.20;;;;;;5414388;26;20510;-72
2024/04/18 04:08:10;;;;;;;0.90;0.60;;;6.20;71.10;;;;;;5414900;26;20456;-72
2024/04/18 04:10:37;;;;;;;0.70;0.40;;;6.20;71.60;;;;;;5413763;26;20004;-72
2024/04/18 04:13:04;;;;;;;0.93;0.55;;;6.20;72.60;;;;;;5414071;26;20017;-72
2024/04/18 04:15:30;;;;;;;2.33;0.80;;;6.10;72.90;;;;;;5412434;26;20006;-72
2024/04/18 04:17:57;;;;;;;0.95;0.40;;;6.00;73.20;;;;;;5411563;26;19992;-72
2024/04/18 04:20:25;;;;;;;0.35;0.32;;;6.00;73.10;;;;;;5411548;26;20096;-72
2024/04/18 04:22:52;;;;;;;0.52;0.43;;;6.10;73.20;;;;;;5412738;26;19996;-72
2024/04/18 04:25:19;;;;;;;1.33;0.73;;;6.10;72.80;;;;;;5412219;26;19998;-72
2024/04/18 04:27:46;;;;;;;0.93;0.52;;;6.10;72.20;;;;;;5412252;26;20452;-72
2024/04/18 04:30:13;;;;;;;0.65;0.45;;;6.20;71.80;;;;;;5411126;26;20002;-72
2024/04/18 04:32:40;;;;;;;0.57;0.45;;;6.20;71.40;;;;;;5410877;26;20000;-72
2024/04/18 04:35:07;;;;;;;1.40;0.50;;;6.20;71.10;;;;;;5412021;26;20468;-72
2024/04/18 04:37:34;;;;;;;0.80;0.60;;;6.30;71.00;;;;;;5413893;26;19996;-72
2024/04/18 04:40:02;;;;;;;0.55;0.52;;;6.40;70.70;;;;;;5414032;26;20010;-72
2024/04/18 04:42:28;;;;;;;1.15;1.02;;;6.40;70.70;;;;;;5382457;26;20020;-72
2024/04/18 04:44:56;;;;;;;0.65;0.63;;;6.40;70.70;;;;;;5412260;26;19999;-72
2024/04/18 04:47:23;;;;;;;0.40;0.40;;;6.40;70.60;;;;;;5414004;26;20000;-72
2024/04/18 04:49:49;;;;;;;0.20;0.20;;;6.50;70.90;;;;;;5413825;26;20324;-72
2024/04/18 04:52:16;;;;;;;1.27;0.98;;;6.50;71.10;;;;;;5411591;26;20475;-72
2024/04/18 04:54:43;;;;;;;1.05;0.75;;;6.50;71.40;;;;;;5414241;26;19995;-72
2024/04/18 04:57:31;;;;;;;1.48;0.68;;;6.50;71.40;;;;;;5413498;26;20023;-72
2024/04/18 04:59:58;;;;;;;1.90;1.35;;;6.50;71.10;;;;;;5411901;26;20330;-72
2024/04/18 05:02:25;;;;;;;1.90;1.25;;;6.60;71.00;;;;;;5410803;26;20429;-72
2024/04/18 05:04:53;;;;;;;2.20;0.85;;;6.60;71.10;;;;;;5411706;26;20011;-72
2024/04/18 05:07:20;;;;;;;3.35;0.82;;;6.70;70.80;;;;;;5413180;26;20463;-71
2024/04/18 05:09:46;;;;;;;0.77;0.57;;;6.70;70.60;;;;;;5412161;26;20010;-72
2024/04/18 05:12:13;;;;;;;1.77;1.25;;;6.80;70.70;;;;;;5380907;26;20000;-72
2024/04/18 05:14:40;;;;;;;3.15;1.50;;;6.80;70.30;;;;;;5412187;26;20382;-72
2024/04/18 05:17:08;;;;;;;2.10;1.65;;;6.90;70.30;;;;;;5412815;26;19996;-72
2024/04/18 05:19:35;;;;;;;0.60;0.45;;;7.00;70.00;;;;;;5413721;26;19996;-73
2024/04/18 05:22:02;;;;;;;1.05;0.52;;;7.10;69.70;;;;;;5412534;26;20072;-72
2024/04/18 05:24:29;;;;;;;0.85;0.52;;;7.20;69.20;;;;;;5410770;26;19995;-72
2024/04/18 05:26:56;;;;;;;1.08;0.60;;;7.20;69.20;;;;;;5412952;26;20010;-72
2024/04/18 05:32:08;;;;;;;2.72;1.60;;;7.40;68.50;;;;;;5411588;26;20039;-72
2024/04/18 05:34:36;;;;;;;1.95;0.77;;;7.40;68.50;;;;;;5411231;26;19998;-72
2024/04/18 05:37:03;;;;;;;1.55;0.60;;;7.50;68.50;;;;;;5412538;26;19992;-72
2024/04/18 05:39:30;;;;;;;1.30;0.70;;;7.50;68.50;;;;;;5413537;26;19995;-72
2024/04/18 05:41:57;;;;;;;5.63;1.85;;;7.60;68.70;;;;;;5412057;26;20351;-72
2024/04/18 05:44:25;;;;;;;2.25;0.55;;;7.70;68.60;;;;;;5413780;26;19992;-72
2024/04/18 05:46:52;;;;;;;12.95;4.38;;;7.80;67.80;;;;;;5416498;26;20328;-72
2024/04/18 05:49:21;;;;;;;3.53;2.97;;;7.90;68.00;;;;;;5414533;26;20006;-72
2024/04/18 05:51:49;;;;;;;3.40;1.27;;;8.10;67.90;;;;;;5414826;26;20050;-72
2024/04/18 05:54:16;;;;;;;1.27;1.00;;;8.20;67.50;;;;;;5416388;26;20008;-72
2024/04/18 05:56:43;;;;;;;2.15;0.70;;;8.20;67.30;;;;;;5416109;26;20000;-72
2024/04/18 05:59:10;;;;;;;0.82;0.65;;;8.20;67.00;;;;;;5415979;26;20000;-72
2024/04/18 06:01:37;;;;;;;1.48;1.05;;;8.20;67.30;;;;;;5414471;26;20000;-72
2024/04/18 06:04:04;;;;;;;0.95;0.68;;;8.20;67.40;;;;;;5413452;26;20324;-72
2024/04/18 06:06:33;;;;;;;1.70;0.70;;;8.30;67.60;;;;;;5416862;26;20374;-72
2024/04/18 06:09:00;;;;;;;1.17;0.93;;;8.30;67.40;;;;;;5416021;26;19996;-72
2024/04/18 06:11:48;;;;;;;1.30;0.55;;;8.40;66.90;;;;;;5414472;26;20378;-72
2024/04/18 06:14:15;;;;;;;;;;;8.60;66.60;;;;;;5417180;26;20080;-72
2024/04/18 06:16:42;;;;;;;1.65;0.40;;;8.60;67.30;;;;;;5416140;26;19925;-72
2024/04/18 06:19:10;;;;;;;1.55;0.90;;;8.80;66.50;;;;;;5416405;26;20010;-72
2024/04/18 06:21:36;;;;;;;0.65;0.50;;;9.00;66.30;;;;;;5415309;26;20015;-72
2024/04/18 06:24:04;;;;;;;2.28;1.33;;;9.00;65.80;;;;;;5414487;26;19999;-72
2024/04/18 06:26:31;;;;;;;1.00;0.20;;;8.90;66.00;;;;;;5415758;26;19996;-72
2024/04/18 06:28:58;;;;;;;1.70;0.85;;;9.10;65.60;;;;;;5416117;26;19999;-72
2024/04/18 06:31:24;;;;;;;0.93;0.40;;;9.20;65.20;;;;;;5415165;26;19996;-72
2024/04/18 06:33:51;;;;;;;1.25;0.50;;;9.20;65.20;;;;;;5415321;26;20435;-72
2024/04/18 06:36:19;;;;;;;0.90;0.57;;;9.30;65.50;;;;;;5414289;26;20003;-73
2024/04/18 06:38:45;;;;;;;1.35;1.02;;;9.30;65.50;;;;;;5397086;26;20004;-73
2024/04/18 06:41:12;;;;;;;0.17;0.17;;;9.30;65.00;;;;;;5390035;26;20522;-72
2024/04/18 06:43:39;;;;;;;1.10;0.52;;;9.20;64.40;;;;;;5386879;26;20023;-72
2024/04/18 06:46:06;;;;;;;0.10;0.10;;;9.20;64.90;;;;;;5383572;26;20054;-72
2024/04/18 06:48:33;;;;;;;0.75;0.52;;;9.10;65.20;;;;;;5387690;26;20032;-73
2024/04/18 06:51:00;;;;;;;0.45;0.45;;;9.20;65.10;;;;;;5349860;26;20015;-72
2024/04/18 06:53:26;;;;;;;1.05;0.82;;;9.30;64.70;;;;;;5396462;26;19995;-72
2024/04/18 06:55:55;;;;;;;0.75;0.65;;;9.40;64.50;;;;;;5401869;26;20333;-72
2024/04/18 06:58:22;;;;;;;0.63;0.38;;;9.50;64.40;;;;;;5379348;26;20010;-72
2024/04/18 07:00:49;;;;;;;1.35;0.70;;;9.40;64.00;;;;;;5378774;26;20019;-72
2024/04/18 07:03:15;;;;;;;0.47;0.47;;;9.40;64.50;;;;;;5376953;26;20452;-72
2024/04/18 07:05:42;;;;;;;0.25;0.25;;;9.30;64.70;;;;;;5399781;26;20381;-72
2024/04/18 07:08:10;;;;;;;0.80;0.55;;;9.40;65.80;;;;;;5399883;26;20349;-72
2024/04/18 07:10:37;;;;;;;1.75;0.75;;;9.40;66.40;;;;;;5378917;26;20478;-73
2024/04/18 07:13:04;;;;;;;0.38;0.30;;;9.50;66.40;;;;;;5370963;26;20341;-73
2024/04/18 07:15:31;;;;;;;0.52;0.35;;;9.80;65.80;;;;;;5389220;26;20000;-72
2024/04/18 07:17:57;;;;;;;0.52;0.45;;;10.30;65.20;;;;;;5378928;26;19996;-73
2024/04/18 07:20:25;;;;;;;0.93;0.77;;;10.70;64.50;;;;;;5377433;26;20004;-72
2024/04/18 07:22:52;;;;;;;0.20;0.20;;;11.20;63.20;;;;;;5348702;26;20510;-72
2024/04/18 07:25:19;;;;;;;1.15;0.75;;;11.50;61.60;;;;;;5376928;26;19996;-73
2024/04/18 07:27:46;;;;;;;0.17;0.17;;;11.70;61.20;;;;;;5355798;26;20007;-72
2024/04/18 07:30:13;;;;;;;1.13;0.50;;;11.90;60.20;;;;;;5397596;26;20000;-72
2024/04/18 07:32:40;;;;;;;1.05;0.55;;;11.90;59.00;;;;;;5398189;26;20416;-73
2024/04/18 07:35:07;;;;;;;0.98;0.85;;;12.00;59.00;;;;;;5396569;26;19997;-72
2024/04/18 07:37:37;;;;;;;0.55;0.40;;;12.00;58.50;;;;;;5379461;26;20341;-73
2024/04/18 07:42:51;;;;;;;;;;;11.90;58.40;;;;;;5400498;26;20010;-72
2024/04/18 07:45:18;;;;;;;0.10;0.10;;;11.80;58.80;;;;;;5391416;26;19925;-72
2024/04/18 07:47:45;;;;;;;1.02;0.60;;;11.70;59.70;;;;;;5389476;26;20445;-72
2024/04/18 07:50:12;;;;;;;0.70;0.57;;;11.60;59.70;;;;;;5376910;26;20004;-73
2024/04/18 07:52:39;;;;;;;0.10;0.10;;;11.60;60.10;;;;;;5377058;26;20379;-72
2024/04/18 07:55:07;;;;;;;0.73;0.73;;;11.60;60.60;;;;;;5378816;26;20011;-72
2024/04/18 07:57:34;;;;;;;1.40;0.43;;;11.70;61.20;;;;;;5351238;26;20000;-72
2024/04/18 08:00:03;;;;;;;0.43;0.35;;;11.70;59.90;;;;;;5377262;26;20452;-72
2024/04/18 08:02:30;;;;;;;1.40;0.77;;;11.90;59.70;;;;;;5385102;26;20008;-72
2024/04/18 08:04:57;;;;;;;0.10;0.10;;;12.20;59.60;;;;;;5376768;26;20444;-71
2024/04/18 08:07:23;;;;;;;0.52;0.43;;;12.60;58.50;;;;;;5376497;26;20007;-72
2024/04/18 08:09:50;;;;;;;0.25;0.25;;;12.70;58.00;;;;;;5378514;26;20023;-72
2024/04/18 08:12:17;;;;;;;1.33;0.82;;;12.70;56.40;;;;;;5377824;26;20008;-72
2024/04/18 08:14:45;;;;;;;1.02;0.55;;;12.70;56.80;;;;;;5378299;26;19997;-72
2024/04/18 08:17:11;;;;;;;0.13;0.13;;;12.90;56.50;;;;;;5403879;26;20441;-72
2024/04/18 08:19:38;;;;;;;0.20;0.20;;;13.30;55.70;;;;;;5411821;26;19995;-72
2024/04/18 08:22:05;;;;;;;0.40;0.28;;;13.80;55.50;;;;;;5411889;26;19999;-72
2024/04/18 08:24:33;;;;;;;0.25;0.25;;;14.20;52.90;;;;;;5414425;26;19992;-72
2024/04/18 08:27:00;;;;;;;1.70;1.20;;;14.50;51.50;;;;;;5412290;26;19995;-72
2024/04/18 08:29:27;;;;;;;0.60;0.52;;;14.90;50.90;;;;;;5413967;26;19995;-72
2024/04/18 08:31:54;;;;;;;0.38;0.38;;;15.30;48.50;;;;;;5411692;26;20328;-72
2024/04/18 08:34:21;;;;;;;0.63;0.30;;;15.80;48.10;;;;;;5413558;26;20006;-71
2024/04/18 08:36:48;;;;;;;0.20;0.20;;;16.30;44.80;;;;;;5411954;26;20357;-72
2024/04/18 08:39:15;;;;;;;0.30;0.30;;;16.80;44.90;;;;;;5414153;26;20004;-72
2024/04/18 08:41:44;;;;;;;0.30;0.30;;;17.70;43.00;;;;;;5402659;26;20000;-72
2024/04/18 08:44:12;;;;;;;0.77;0.52;;;18.50;41.90;;;;;;5400516;26;20068;-72
2024/04/18 08:46:40;;;;;;;1.20;0.47;;;19.00;38.60;;;;;;5393566;26;20012;-72
2024/04/18 08:49:10;;;;;;;1.83;1.33;;;19.10;36.90;;;;;;5367215;26;20078;-73
2024/04/18 08:51:40;;;;;;;0.60;0.52;;;19.10;35.60;;;;;;5393351;26;20023;-72
2024/04/18 08:54:06;;;;;;;1.05;0.95;;;19.20;35.20;;;;;;5377975;26;20050;-72
2024/04/18 08:56:35;;;;;;;0.28;0.22;;;19.40;35.40;;;;;;5397141;26;20010;-72
2024/04/18 08:59:02;;;;;;;0.20;0.20;;;19.50;33.80;;;;;;5392302;26;20003;-72
2024/04/18 09:01:29;;;;;;;0.93;0.68;;;19.90;34.30;;;;;;5404566;26;20472;-73
2024/04/18 09:03:57;;;;;;;1.77;0.73;;;20.30;32.40;;;;;;5405123;26;20455;-73
2024/04/18 09:06:25;;;;;;;0.10;0.10;;;20.90;32.40;;;;;;5390318;26;19997;-73
2024/04/18 09:09:14;;;;;;;0.50;0.50;;;21.40;30.50;;;;;;5386886;26;20073;-73
2024/04/18 09:11:41;;;;;;;0.20;0.20;;;22.10;28.80;;;;;;5401458;26;20011;-72
2024/04/18 09:14:09;;;;;;;0.40;0.30;;;22.30;27.90;;;;;;5409039;26;20000;-73
2024/04/18 09:16:37;;;;;;;1.45;0.50;;;22.70;28.50;;;;;;5394701;26;20339;-72
2024/04/18 09:19:05;;;;;;;1.23;0.50;;;23.40;27.50;;;;;;5411987;26;20497;-73
2024/04/18 09:21:33;;;;;;;0.30;0.20;;;23.70;27.00;;;;;;5415849;26;20007;-73
2024/04/18 09:24:00;;;;;;;0.20;0.20;;;23.90;26.40;;;;;;5411672;26;19995;-73
2024/04/18 09:26:46;;;;;;;1.40;0.80;;;24.20;25.30;;;;;;5389623;26;20082;-73
2024/04/18 09:29:13;;;;;;;0.68;0.52;;;24.10;24.90;;;;;;5404999;26;20007;-73
2024/04/18 09:31:41;;;;;;;0.30;0.30;;;24.30;25.00;;;;;;5405631;26;20015;-73
2024/04/18 09:34:10;;;;;;;0.65;0.65;;;24.70;24.10;;;;;;5396318;26;20006;-72
2024/04/18 09:36:39;;;;;;;0.30;0.30;;;24.80;24.00;;;;;;5389389;26;19996;-73
2024/04/18 09:39:10;;;;;;;3.00;0.63;;;25.40;23.90;;;;;;5355111;26;20341;-73
2024/04/18 09:41:40;;;;;;;0.30;0.30;;;25.90;23.20;;;;;;5380743;26;20325;-72
2024/04/18 09:44:30;;;;;;;0.25;0.20;;;26.10;21.00;;;;;;5384658;26;20050;-73
2024/04/18 09:46:57;;;;;;;0.43;0.30;;;25.90;21.80;;;;;;5393844;26;20364;-72
2024/04/18 09:49:25;;;;;;;2.60;0.73;;;25.80;22.20;;;;;;5403449;26;20532;-72
2024/04/18 09:51:53;;;;;;;0.20;0.20;;;25.30;22.80;;;;;;5413824;26;19995;-73
2024/04/18 09:54:21;;;;;;;0.65;0.32;;;24.90;23.60;;;;;;5383370;26;20943;-72
2024/04/18 09:56:49;;;;;;;0.63;0.63;;;24.80;23.30;;;;;;5349390;26;20015;-72
2024/04/18 09:59:17;;;;;;;0.50;0.43;;;24.40;24.00;;;;;;5404401;26;20016;-72
2024/04/18 10:01:44;;;;;;;2.00;0.47;;;23.80;24.60;;;;;;5411412;26;20000;-72
2024/04/18 10:04:11;;;;;;;0.57;0.57;;;23.50;23.70;;;;;;5399658;26;20007;-72
2024/04/18 10:06:41;;;;;;;0.75;0.60;;;23.70;24.60;;;;;;5386925;26;20004;-73
2024/04/18 10:09:10;;;;;;;0.50;0.50;;;24.60;23.90;;;;;;5382250;26;19992;-73
2024/04/18 10:11:38;;;;;;;0.68;0.47;;;25.40;22.20;;;;;;5408239;26;20003;-73
2024/04/18 10:14:08;;;;;;;0.57;0.40;;;25.80;21.90;;;;;;5387122;26;20010;-73
2024/04/18 10:16:50;;;;;;;0.20;0.20;;;27.00;21.40;;;;;;5395234;26;20053;-74
2024/04/18 10:19:36;;;;;;;0.65;0.40;;;27.70;20.10;;;;;;5401463;26;20039;-73
2024/04/18 10:22:03;;;;;;;0.45;0.35;;;27.40;19.60;;;;;;5406068;26;19995;-72
2024/04/18 10:25:26;;;;;;;0.63;0.43;;;26.60;19.50;;;;;;5372910;26;19999;-72
2024/04/18 10:27:53;;;;;;;0.35;0.20;;;26.60;19.20;;;;;;5394515;26;20332;-73
2024/04/18 10:30:25;;;;;;;0.28;0.25;;;25.80;20.40;;;;;;5384408;26;20073;-72
2024/04/18 10:32:52;;;;;;;1.08;0.55;;;25.40;20.30;;;;;;5383602;26;20096;-72
2024/04/18 10:35:19;;;;;;;0.85;0.30;;;25.00;21.00;;;;;;5384827;26;20336;-72
2024/04/18 10:37:51;;;;;;;0.30;0.20;;;25.00;20.90;;;;;;5383705;26;20460;-73
2024/04/18 10:40:18;;;;;;;0.90;0.90;;;25.00;21.80;;;;;;5409615;26;19999;-72
2024/04/18 10:42:44;;;;;;;1.15;0.70;;;24.50;22.30;;;;;;5393764;26;20436;-73
2024/04/18 10:45:11;;;;;;;1.05;0.82;;;23.90;22.10;;;;;;5393279;26;20328;-72
2024/04/18 10:47:40;;;;;;;0.30;0.25;;;23.50;22.90;;;;;;5401083;26;20000;-72
2024/04/18 10:50:07;;;;;;;0.20;0.13;;;23.20;21.70;;;;;;5395919;26;20475;-72
2024/04/18 10:52:34;;;;;;;0.73;0.40;;;23.30;23.00;;;;;;5394971;26;19992;-72
2024/04/18 10:55:01;;;;;;;0.47;0.43;;;23.90;22.60;;;;;;5413211;26;20003;-72
2024/04/18 10:57:27;;;;;;;0.60;0.47;;;23.80;23.00;;;;;;5398573;26;20007;-73
2024/04/18 10:59:54;;;;;;;0.30;0.30;;;23.60;23.80;;;;;;5378256;26;20018;-73
2024/04/18 11:02:21;;;;;;;0.73;0.40;;;23.50;24.70;;;;;;5386031;26;20012;-72
2024/04/18 11:04:48;;;;;;;0.40;0.30;;;23.40;24.90;;;;;;5387852;26;19996;-72
2024/04/18 11:07:14;;;;;;;0.52;0.28;;;23.30;24.60;;;;;;5415184;26;19999;-72
2024/04/18 11:09:43;;;;;;;0.10;0.10;;;23.30;24.90;;;;;;5371075;26;20409;-72
2024/04/18 11:12:10;;;;;;;0.20;0.20;;;23.20;23.10;;;;;;5388265;26;20008;-73
2024/04/18 11:14:37;;;;;;;0.40;0.30;;;23.00;24.00;;;;;;5382069;26;20014;-73
2024/04/18 11:17:04;;;;;;;0.45;0.35;;;23.30;24.10;;;;;;5407152;26;20000;-73
2024/04/18 11:19:31;;;;;;;0.52;0.47;;;24.30;24.30;;;;;;5393913;26;19996;-72
2024/04/18 11:22:18;;;;;;;1.58;0.93;;;24.90;22.70;;;;;;5384074;26;19996;-72
2024/04/18 11:24:45;;;;;;;0.30;0.20;;;25.10;21.30;;;;;;5399077;26;20354;-72
2024/04/18 11:27:11;;;;;;;0.40;0.40;;;25.70;20.60;;;;;;5396019;26;20011;-73
2024/04/18 11:29:40;;;;;;;0.68;0.60;;;26.60;21.30;;;;;;5399500;26;20015;-72
2024/04/18 11:32:26;;;;;;;0.20;0.20;;;27.70;20.00;;;;;;5381102;26;20004;-72
2024/04/18 11:34:53;;;;;;;0.50;0.40;;;27.30;19.40;;;;;;5396086;26;20081;-72
2024/04/18 11:37:20;;;;;;;0.52;0.50;;;26.40;20.80;;;;;;5387199;26;20000;-72
2024/04/18 11:39:47;;;;;;;0.70;0.57;;;25.70;21.10;;;;;;5408226;26;21582;-72
2024/04/18 11:42:14;;;;;;;0.57;0.40;;;25.20;21.40;;;;;;5398801;26;20000;-73
2024/04/18 11:44:42;;;;;;;1.33;0.77;;;25.20;21.70;;;;;;5336652;26;20011;-72
2024/04/18 11:47:08;;;;;;;0.63;0.57;;;26.10;20.80;;;;;;5342392;26;20041;-72
2024/04/18 11:49:35;;;;;;;0.30;0.30;;;26.60;20.00;;;;;;5318392;26;20462;-72
2024/04/18 11:52:02;;;;;;;0.90;0.82;;;27.80;19.10;;;;;;5345765;26;20004;-71
2024/04/18 11:54:31;;;;;;;0.15;0.15;;;29.10;17.40;;;;;;5361601;26;19997;-71
2024/04/18 11:56:58;;;;;;;0.70;0.40;;;29.60;16.70;;;;;;5355482;26;20012;-72
2024/04/18 11:59:25;;;;;;;1.05;0.75;;;29.80;16.80;;;;;;5342435;26;20016;-72
2024/04/18 12:01:52;;;;;;;1.20;1.02;;;29.60;15.60;;;;;;5359910;26;20023;-72
2024/04/18 12:04:20;;;;;;;0.63;0.40;;;29.50;15.80;;;;;;5344257;26;19997;-72
2024/04/18 12:06:46;;;;;;;0.30;0.30;;;29.10;16.80;;;;;;5344142;26;20052;-73
2024/04/18 12:09:13;;;;;;;0.50;0.50;;;29.30;15.80;;;;;;5344203;26;20358;-72
2024/04/18 12:11:40;;;;;;;0.40;0.40;;;29.80;15.60;;;;;;5343306;26;20001;-73
2024/04/18 12:14:07;;;;;;;1.27;0.60;;;30.00;15.30;;;;;;5342231;26;20008;-72
2024/04/18 12:16:34;;;;;;;0.40;0.40;;;28.90;15.30;;;;;;5342323;26;20070;-72
2024/04/18 12:19:01;;;;;;;0.30;0.30;;;27.70;16.50;;;;;;5372690;26;19996;-72
2024/04/18 12:21:27;;;;;;;0.55;0.30;;;27.30;17.70;;;;;;5378583;26;20016;-72
2024/04/18 12:23:54;;;;;;;0.68;0.40;;;28.10;17.40;;;;;;5355229;26;20337;-72
2024/04/18 12:26:21;;;;;;;0.85;0.50;;;29.00;14.30;;;;;;5343786;26;20005;-73
2024/04/18 12:28:48;;;;;;;1.13;0.85;;;29.20;13.60;;;;;;5359946;26;20008;-73
2024/04/18 12:31:14;;;;;;;9.10;1.67;;;30.30;14.80;;;;;;5378303;26;20075;-72
2024/04/18 12:33:41;;;;;;;0.30;0.30;;;31.40;14.20;;;;;;5378391;26;20539;-72
2024/04/18 12:36:09;;;;;;;1.23;0.70;;;32.00;13.50;;;;;;5352633;26;20011;-72
2024/04/18 12:38:36;;;;;;;0.40;0.40;;;32.50;12.60;;;;;;5341932;26;20052;-72
2024/04/18 12:41:04;;;;;;;0.35;0.35;;;32.80;12.00;;;;;;5343116;26;20012;-72
2024/04/18 12:43:32;;;;;;;0.38;0.38;;;31.50;13.10;;;;;;5401020;26;20072;-72
2024/04/18 12:46:00;;;;;;;0.90;0.38;;;30.60;13.30;;;;;;5450156;26;20075;-73
2024/04/18 12:48:27;;;;;;;0.55;0.38;;;30.50;13.70;;;;;;5449340;26;20071;-72
2024/04/18 12:50:54;;;;;;;0.55;0.47;;;30.80;13.10;;;;;;5445784;26;19999;-73
2024/04/18 12:53:22;;;;;;;0.77;0.40;;;31.30;13.50;;;;;;5430504;26;19991;-73
2024/04/18 12:55:49;;;;;;;0.75;0.55;;;31.70;12.90;;;;;;5429006;26;20011;-72
2024/04/18 12:58:16;;;;;;;0.60;0.43;;;32.00;12.20;;;;;;5422918;26;20327;-72
2024/04/18 13:00:44;;;;;;;0.32;0.32;;;32.10;12.70;;;;;;5448546;26;19998;-72
2024/04/18 13:03:11;;;;;;;0.73;0.40;;;32.50;12.90;;;;;;5417353;26;20476;-72